createdAt,value
2019-02-16T00:00:55.885Z,2.83
2019-02-16T00:03:24.991Z,2.93
2019-02-16T00:05:54.068Z,2.76
2019-02-16T00:08:23.172Z,2.93
2019-02-16T00:10:52.250Z,2.95
2019-02-16T00:13:21.356Z,2.45
2019-02-16T00:15:50.618Z,2.27
2019-02-16T00:18:19.715Z,2.23
2019-02-16T00:20:49.110Z,2.10
2019-02-16T00:23:18.214Z,1.96
2019-02-16T00:25:47.290Z,2.06
2019-02-16T00:28:16.370Z,1.80
2019-02-16T00:30:45.461Z,1.73
2019-02-16T00:33:14.606Z,1.79
2019-02-16T00:35:43.719Z,1.69
2019-02-16T00:38:12.807Z,1.65
2019-02-16T00:40:41.980Z,1.43
2019-02-16T00:43:11.010Z,1.39
2019-02-16T00:45:40.105Z,1.54
2019-02-16T00:48:09.180Z,1.70
2019-02-16T00:50:38.279Z,1.82
2019-02-16T00:53:07.349Z,1.70
2019-02-16T00:55:36.449Z,1.60
2019-02-16T00:58:05.518Z,1.49
2019-02-16T01:00:34.617Z,1.32
2019-02-16T01:03:03.688Z,1.15
2019-02-16T01:05:32.791Z,1.16
2019-02-16T01:08:01.865Z,1.08
2019-02-16T01:10:30.969Z,0.94
2019-02-16T01:13:00.048Z,0.94
2019-02-16T01:15:29.145Z,0.76
2019-02-16T01:17:58.216Z,0.68
2019-02-16T01:20:27.313Z,0.71
2019-02-16T01:22:56.398Z,0.84
2019-02-16T01:25:25.502Z,0.64
2019-02-16T01:27:54.589Z,0.63
2019-02-16T01:30:23.739Z,0.57
2019-02-16T01:32:52.846Z,0.76
2019-02-16T01:35:21.935Z,0.85
2019-02-16T01:37:51.037Z,0.86
2019-02-16T01:40:20.135Z,0.87
2019-02-16T01:42:49.251Z,1.30
2019-02-16T01:45:18.325Z,1.32
2019-02-16T01:47:47.428Z,1.51
2019-02-16T01:50:16.505Z,1.63
2019-02-16T01:52:45.611Z,1.40
2019-02-16T01:55:15.010Z,1.39
2019-02-16T01:57:44.115Z,1.27
2019-02-16T02:00:13.192Z,1.10
2019-02-16T02:02:42.291Z,0.88
2019-02-16T02:05:11.369Z,0.79
2019-02-16T02:07:40.662Z,0.65
2019-02-16T02:10:10.240Z,0.66
2019-02-16T02:12:39.341Z,0.58
2019-02-16T02:15:09.311Z,0.42
2019-02-16T02:17:38.416Z,0.26
2019-02-16T02:20:07.846Z,0.18
2019-02-16T02:22:36.950Z,0.14
2019-02-16T02:25:07.430Z,0.08
2019-02-16T02:27:36.525Z,-0.01
2019-02-16T02:30:06.131Z,-0.12
2019-02-16T02:32:35.206Z,-0.20
2019-02-16T02:35:04.334Z,-0.22
2019-02-16T02:37:33.418Z,-0.24
2019-02-16T02:40:02.569Z,-0.18
2019-02-16T02:42:31.642Z,-0.18
2019-02-16T02:45:00.742Z,-0.26
2019-02-16T02:47:29.827Z,-0.20
2019-02-16T02:49:58.932Z,-0.04
2019-02-16T02:52:28.021Z,0.06
2019-02-16T02:54:57.117Z,0.17
2019-02-16T02:57:26.217Z,0.10
2019-02-16T02:59:55.322Z,0.01
2019-02-16T03:02:24.411Z,-0.03
2019-02-16T03:04:53.516Z,0.08
2019-02-16T03:07:22.670Z,-0.06
2019-02-16T03:09:51.763Z,-0.08
2019-02-16T03:12:20.883Z,-0.16
2019-02-16T03:14:49.966Z,-0.23
2019-02-16T03:17:19.060Z,-0.16
2019-02-16T03:19:48.142Z,-0.25
2019-02-16T03:22:17.244Z,-0.27
2019-02-16T03:24:46.323Z,-0.24
2019-02-16T03:27:49.195Z,-0.21
2019-02-16T03:31:17.448Z,-0.33
2019-02-16T03:33:51.069Z,-0.38
2019-02-16T03:37:01.313Z,-0.34
2019-02-16T03:39:36.911Z,-0.46
2019-02-16T03:42:06.016Z,-0.25
2019-02-16T03:44:35.094Z,-0.03
2019-02-16T03:47:04.196Z,-0.09
2019-02-16T03:49:33.275Z,-0.15
2019-02-16T03:52:12.866Z,-0.13
2019-02-16T03:54:33.172Z,-0.18
2019-02-16T03:57:02.275Z,-0.18
2019-02-16T03:59:31.466Z,-0.24
2019-02-16T04:02:00.562Z,-0.21
2019-02-16T04:04:29.644Z,-0.28
2019-02-16T04:06:58.733Z,-0.10
2019-02-16T04:09:28.156Z,-0.10
2019-02-16T04:11:57.254Z,-0.14
2019-02-16T04:14:26.333Z,0.02
2019-02-16T04:16:55.405Z,0.01
2019-02-16T04:19:24.503Z,-0.09
2019-02-16T04:21:53.586Z,-0.08
2019-02-16T04:24:22.686Z,0.59
2019-02-16T04:26:51.834Z,1.09
2019-02-16T04:29:20.933Z,0.89
2019-02-16T04:31:50.006Z,0.63
2019-02-16T04:34:19.109Z,0.16
2019-02-16T04:36:48.186Z,0.11
2019-02-16T04:39:17.309Z,0.30
2019-02-16T04:41:46.378Z,0.32
2019-02-16T04:44:15.470Z,0.12
2019-02-16T04:46:44.547Z,-0.03
2019-02-16T04:49:13.654Z,-0.06
2019-02-16T04:51:42.734Z,0.85
2019-02-16T04:54:11.836Z,0.71
2019-02-16T04:56:40.923Z,0.39
2019-02-16T04:59:10.015Z,0.28
2019-02-16T05:01:39.096Z,1.07
2019-02-16T05:04:08.192Z,0.77
2019-02-16T05:06:37.264Z,0.40
2019-02-16T05:09:07.011Z,0.19
2019-02-16T05:11:36.100Z,0.11
2019-02-16T05:14:05.172Z,-0.02
2019-02-16T05:16:34.261Z,0.02
2019-02-16T05:19:03.339Z,-0.09
2019-02-16T05:21:32.437Z,-0.16
2019-02-16T05:24:01.528Z,-0.20
2019-02-16T05:26:30.626Z,-0.09
2019-02-16T05:28:59.707Z,-0.15
2019-02-16T05:31:28.807Z,-0.23
2019-02-16T05:33:57.886Z,-0.17
2019-02-16T05:36:26.993Z,-0.04
2019-02-16T05:38:56.071Z,0.50
2019-02-16T05:41:25.187Z,0.49
2019-02-16T05:43:54.259Z,0.46
2019-02-16T05:46:24.691Z,0.12
2019-02-16T05:48:53.820Z,-0.12
2019-02-16T05:51:22.921Z,0.37
2019-02-16T05:53:52.004Z,0.84
2019-02-16T05:56:21.109Z,0.92
2019-02-16T05:58:50.173Z,1.20
2019-02-16T06:01:19.256Z,1.41
2019-02-16T06:03:48.351Z,1.31
2019-02-16T06:06:17.430Z,1.33
2019-02-16T06:08:46.532Z,1.38
2019-02-16T06:11:15.620Z,1.57
2019-02-16T06:13:44.724Z,2.37
2019-02-16T06:16:13.813Z,2.65
2019-02-16T06:18:42.911Z,2.72
2019-02-16T06:21:11.989Z,2.84
2019-02-16T06:23:41.084Z,3.13
2019-02-16T06:26:10.195Z,3.13
2019-02-16T06:28:39.302Z,3.05
2019-02-16T06:31:08.374Z,3.00
2019-02-16T06:33:37.465Z,2.93
2019-02-16T06:36:21.081Z,2.45
2019-02-16T06:38:50.179Z,2.01
2019-02-16T06:41:19.279Z,1.60
2019-02-16T06:43:48.383Z,1.41
2019-02-16T06:46:17.477Z,1.30
2019-02-16T06:48:46.574Z,1.17
2019-02-16T06:51:15.649Z,1.12
2019-02-16T06:53:45.224Z,0.90
2019-02-16T06:56:30.275Z,0.81
2019-02-16T06:58:59.372Z,0.69
2019-02-16T07:01:28.449Z,0.68
2019-02-16T07:03:57.551Z,0.75
2019-02-16T07:06:26.634Z,0.88
2019-02-16T07:08:55.742Z,0.83
2019-02-16T07:11:24.824Z,0.80
2019-02-16T07:13:53.898Z,0.74
2019-02-16T07:16:41.945Z,0.70
2019-02-16T07:19:39.260Z,0.87
2019-02-16T07:22:08.343Z,1.04
2019-02-16T07:24:37.451Z,1.05
2019-02-16T07:27:06.537Z,2.10
2019-02-16T07:29:35.628Z,2.32
2019-02-16T07:32:04.707Z,3.14
2019-02-16T07:34:33.783Z,3.67
2019-02-16T07:37:02.880Z,4.25
2019-02-16T07:39:31.965Z,4.19
2019-02-16T07:42:01.087Z,4.37
2019-02-16T07:44:47.683Z,5.11
2019-02-16T07:47:35.762Z,6.67
2019-02-16T07:50:29.893Z,9.91
2019-02-16T07:53:20.986Z,10.11
2019-02-16T07:55:54.355Z,10.09
2019-02-16T07:58:29.427Z,9.02
2019-02-16T08:01:26.609Z,8.22
2019-02-16T08:04:14.667Z,8.13
2019-02-16T08:07:05.828Z,6.93
2019-02-16T08:09:52.261Z,7.89
2019-02-16T08:12:40.348Z,8.50
2019-02-16T08:15:28.401Z,9.25
2019-02-16T08:18:25.997Z,10.03
2019-02-16T08:21:02.673Z,9.54
2019-02-16T08:23:50.759Z,9.52
2019-02-16T08:26:42.765Z,10.03
2019-02-16T08:29:27.993Z,10.77
2019-02-16T08:32:04.641Z,11.11
2019-02-16T08:34:43.794Z,11.41
2019-02-16T08:37:31.882Z,12.37
2019-02-16T08:40:09.225Z,13.21
2019-02-16T08:42:55.796Z,16.54
2019-02-16T08:45:52.391Z,20.41
2019-02-16T08:48:55.404Z,20.35
2019-02-16T08:51:46.473Z,22.28
2019-02-16T08:54:37.315Z,25.89
2019-02-16T08:57:37.384Z,23.21
2019-02-16T09:00:28.320Z,23.97
2019-02-16T09:03:14.848Z,21.71
2019-02-16T09:05:51.660Z,24.69
2019-02-16T09:08:51.963Z,22.55
2019-02-16T09:11:42.836Z,25.20
2019-02-16T09:14:39.990Z,26.72
2019-02-16T09:17:33.966Z,25.58
2019-02-16T09:20:20.867Z,27.04
2019-02-16T09:22:55.811Z,27.71
2019-02-16T09:25:42.350Z,27.01
2019-02-16T09:28:29.788Z,22.37
2019-02-16T09:31:09.112Z,20.67
2019-02-16T09:33:54.375Z,19.63
2019-02-16T09:36:37.821Z,18.40
2019-02-16T09:39:15.977Z,19.18
2019-02-16T09:42:12.903Z,20.04
2019-02-16T09:44:48.082Z,19.74
2019-02-16T09:47:41.016Z,23.27
2019-02-16T09:50:29.113Z,23.45
2019-02-16T09:53:17.195Z,26.59
2019-02-16T09:56:07.685Z,27.33
2019-02-16T09:58:49.590Z,29.06
2019-02-16T10:01:40.503Z,23.67
2019-02-16T10:04:19.961Z,26.95
2019-02-16T10:07:06.726Z,25.97
2019-02-16T10:10:10.051Z,24.20
2019-02-16T10:12:56.765Z,23.19
2019-02-16T10:15:54.005Z,24.53
2019-02-16T10:18:38.590Z,22.19
2019-02-16T10:21:45.668Z,23.04
2019-02-16T10:24:32.024Z,22.95
2019-02-16T10:27:18.863Z,27.16
2019-02-16T10:29:54.487Z,25.83
2019-02-16T10:32:45.552Z,27.51
2019-02-16T10:35:33.636Z,26.35
2019-02-16T10:38:13.328Z,25.69
2019-02-16T10:41:01.649Z,28.32
2019-02-16T10:44:00.927Z,25.84
2019-02-16T10:47:04.002Z,25.94
2019-02-16T10:49:50.807Z,29.15
2019-02-16T10:52:28.622Z,28.07
2019-02-16T10:55:23.375Z,27.46
2019-02-16T10:58:26.459Z,31.02
2019-02-16T11:01:17.090Z,30.35
2019-02-16T11:04:07.919Z,28.02
2019-02-16T11:06:48.395Z,28.30
2019-02-16T11:09:24.731Z,28.27
2019-02-16T11:12:17.483Z,31.01
2019-02-16T11:15:03.966Z,30.41
2019-02-16T11:18:10.338Z,27.94
2019-02-16T11:20:52.011Z,28.71
2019-02-16T11:23:43.101Z,30.65
2019-02-16T11:26:24.449Z,30.96
2019-02-16T11:29:18.303Z,30.07
2019-02-16T11:32:06.385Z,29.57
2019-02-16T11:34:52.940Z,29.59
2019-02-16T11:37:28.340Z,32.49
2019-02-16T11:40:19.200Z,28.36
2019-02-16T11:43:02.848Z,27.55
2019-02-16T11:46:09.145Z,26.93
2019-02-16T11:48:54.565Z,27.20
2019-02-16T11:51:40.992Z,27.11
2019-02-16T11:54:27.769Z,29.37
2019-02-16T11:57:16.254Z,31.00
2019-02-16T12:00:16.426Z,31.91
2019-02-16T12:03:06.125Z,33.45
2019-02-16T12:06:00.255Z,31.32
2019-02-16T12:08:35.839Z,31.92
2019-02-16T12:11:29.758Z,31.95
2019-02-16T12:14:17.943Z,31.15
2019-02-16T12:17:07.535Z,29.81
2019-02-16T12:20:04.409Z,31.44
2019-02-16T12:22:52.483Z,31.23
2019-02-16T12:25:40.950Z,28.79
2019-02-16T12:28:21.593Z,30.99
2019-02-16T12:31:24.779Z,30.15
2019-02-16T12:34:21.434Z,29.99
2019-02-16T12:37:11.735Z,30.05
2019-02-16T12:39:59.031Z,30.33
2019-02-16T12:42:50.183Z,28.90
2019-02-16T12:45:24.990Z,29.09
2019-02-16T12:48:02.094Z,30.91
2019-02-16T12:50:39.646Z,29.67
2019-02-16T12:53:23.342Z,30.59
2019-02-16T12:56:17.263Z,32.21
2019-02-16T12:59:05.350Z,32.31
2019-02-16T13:01:48.826Z,29.12
2019-02-16T13:04:48.834Z,30.97
2019-02-16T13:07:42.950Z,30.78
2019-02-16T13:10:33.835Z,30.67
2019-02-16T13:13:30.858Z,30.07
2019-02-16T13:16:17.659Z,30.83
2019-02-16T13:19:04.401Z,28.69
2019-02-16T13:21:55.572Z,28.07
2019-02-16T13:24:42.098Z,30.63
2019-02-16T13:27:42.159Z,29.12
2019-02-16T13:30:34.034Z,26.62
2019-02-16T13:33:22.146Z,28.34
2019-02-16T13:36:07.808Z,30.67
2019-02-16T13:38:58.963Z,26.37
2019-02-16T13:41:56.053Z,26.41
2019-02-16T13:44:47.037Z,25.75
2019-02-16T13:47:26.076Z,25.87
2019-02-16T13:50:14.159Z,27.09
2019-02-16T13:52:48.858Z,27.22
2019-02-16T13:55:43.234Z,27.39
2019-02-16T13:58:24.740Z,28.22
2019-02-16T14:01:07.117Z,27.91
2019-02-16T14:03:43.135Z,28.42
2019-02-16T14:06:49.246Z,28.92
2019-02-16T14:09:34.948Z,27.22
2019-02-16T14:12:21.517Z,27.59
2019-02-16T14:15:21.821Z,26.56
2019-02-16T14:17:51.640Z,26.05
2019-02-16T14:20:20.813Z,24.94
2019-02-16T14:22:49.916Z,25.95
2019-02-16T14:25:42.684Z,25.26
2019-02-16T14:28:07.304Z,25.38
2019-02-16T14:30:36.392Z,25.12
2019-02-16T14:33:05.522Z,24.64
2019-02-16T14:35:34.603Z,25.35
2019-02-16T14:38:08.419Z,23.91
2019-02-16T14:40:37.529Z,25.02
2019-02-16T14:43:06.650Z,26.09
2019-02-16T14:45:38.584Z,26.25
2019-02-16T14:48:07.667Z,25.92
2019-02-16T14:50:36.774Z,25.68
2019-02-16T14:53:05.865Z,25.60
2019-02-16T14:55:34.978Z,25.04
2019-02-16T14:58:04.068Z,23.52
2019-02-16T15:00:33.180Z,24.32
2019-02-16T15:03:02.265Z,24.10
2019-02-16T15:05:31.368Z,24.18
2019-02-16T15:08:00.458Z,23.89
2019-02-16T15:10:29.617Z,24.29
2019-02-16T15:12:58.703Z,23.12
2019-02-16T15:15:27.820Z,24.15
2019-02-16T15:17:56.914Z,23.27
2019-02-16T15:20:26.036Z,22.91
2019-02-16T15:22:55.146Z,21.91
2019-02-16T15:25:24.261Z,22.65
2019-02-16T15:27:53.359Z,23.35
2019-02-16T15:30:22.496Z,21.68
2019-02-16T15:32:51.578Z,22.03
2019-02-16T15:35:20.760Z,22.40
2019-02-16T15:37:49.790Z,22.45
2019-02-16T15:40:18.896Z,21.64
2019-02-16T15:42:48.012Z,20.13
2019-02-16T15:45:17.129Z,21.12
2019-02-16T15:47:46.221Z,21.55
2019-02-16T15:50:15.521Z,21.62
2019-02-16T15:52:44.614Z,21.09
2019-02-16T15:55:13.824Z,20.21
2019-02-16T15:57:42.914Z,21.20
2019-02-16T16:00:19.335Z,20.67
2019-02-16T16:02:48.474Z,20.32
2019-02-16T16:05:17.575Z,18.30
2019-02-16T16:07:55.993Z,16.12
2019-02-16T16:10:34.759Z,15.34
2019-02-16T16:13:31.703Z,15.03
2019-02-16T16:16:22.816Z,14.64
2019-02-16T16:19:05.446Z,14.44
2019-02-16T16:21:45.540Z,14.16
2019-02-16T16:24:27.169Z,14.11
2019-02-16T16:30:11.334Z,13.68
2019-02-16T16:32:46.793Z,13.62
2019-02-16T16:35:44.149Z,13.58
2019-02-16T16:38:31.280Z,13.40
2019-02-16T16:41:18.344Z,13.24
2019-02-16T16:44:02.746Z,12.97
2019-02-16T16:46:56.735Z,12.89
2019-02-16T16:49:33.978Z,12.80
2019-02-16T16:52:25.071Z,12.74
2019-02-16T16:55:20.967Z,12.58
2019-02-16T16:58:09.034Z,12.23
2019-02-16T17:01:06.157Z,11.83
2019-02-16T17:03:57.252Z,11.65
2019-02-16T17:06:50.901Z,11.15
2019-02-16T17:09:42.023Z,11.01
2019-02-16T17:12:35.940Z,10.74
2019-02-16T17:15:27.001Z,10.37
2019-02-16T17:18:01.734Z,10.35
2019-02-16T17:20:49.823Z,9.86
2019-02-16T17:23:40.984Z,9.54
2019-02-16T17:26:26.913Z,9.44
2019-02-16T17:29:04.240Z,9.33
2019-02-16T17:31:51.089Z,9.20
2019-02-16T17:34:33.038Z,8.76
2019-02-16T17:37:27.029Z,8.52
2019-02-16T17:40:13.782Z,8.15
2019-02-16T17:43:14.153Z,8.05
2019-02-16T17:46:14.086Z,8.03
2019-02-16T17:49:17.592Z,7.77
2019-02-16T17:52:11.439Z,7.53
2019-02-16T17:55:10.301Z,7.15
2019-02-16T17:57:56.810Z,7.03
2019-02-16T18:00:47.967Z,7.05
2019-02-16T18:03:40.288Z,6.83
2019-02-16T18:06:15.212Z,6.62
2019-02-16T18:09:15.261Z,6.54
2019-02-16T18:12:03.346Z,6.43
2019-02-16T18:14:46.724Z,6.27
2019-02-16T18:17:21.942Z,6.18
2019-02-16T18:20:08.461Z,6.08
2019-02-16T18:22:50.210Z,5.95
2019-02-16T18:25:31.111Z,5.83
2019-02-16T18:28:19.609Z,5.76
2019-02-16T18:31:22.735Z,5.74
2019-02-16T18:34:06.462Z,5.48
2019-02-16T18:36:53.894Z,5.55
2019-02-16T18:39:47.966Z,5.38
2019-02-16T18:42:39.108Z,5.24
2019-02-16T18:45:33.826Z,5.33
2019-02-16T18:48:20.566Z,5.41
2019-02-16T18:51:20.817Z,5.25
2019-02-16T18:54:08.916Z,5.20
2019-02-16T18:57:06.085Z,5.16
2019-02-16T18:59:49.578Z,5.11
2019-02-16T19:02:34.783Z,5.21
2019-02-16T19:05:28.793Z,4.84
2019-02-16T19:08:32.055Z,4.85
2019-02-16T19:11:18.660Z,4.85
2019-02-16T19:13:58.760Z,4.80
2019-02-16T19:16:36.857Z,4.84
2019-02-16T19:19:32.828Z,4.69
2019-02-16T19:22:10.083Z,4.59
2019-02-16T19:24:56.642Z,4.54
2019-02-16T19:27:48.743Z,4.57
2019-02-16T19:30:39.907Z,4.50
2019-02-16T19:33:21.235Z,4.49
2019-02-16T19:36:09.297Z,4.56
2019-02-16T19:39:00.292Z,4.47
2019-02-16T19:41:39.171Z,4.40
2019-02-16T19:44:18.195Z,4.37
2019-02-16T19:47:21.084Z,4.25
2019-02-16T19:50:16.113Z,4.23
2019-02-16T19:53:07.265Z,4.16
2019-02-16T19:55:42.709Z,4.06
2019-02-16T19:58:34.448Z,4.21
2019-02-16T20:01:22.313Z,4.10
2019-02-16T20:04:13.416Z,4.02
2019-02-16T20:06:51.474Z,3.95
2019-02-16T20:09:26.126Z,3.94
2019-02-16T20:12:13.580Z,3.94
2019-02-16T20:14:58.204Z,3.77
2019-02-16T20:17:35.833Z,3.66
2019-02-16T20:20:30.898Z,3.78
2019-02-16T20:23:21.822Z,3.70
2019-02-16T20:26:07.462Z,3.69
2019-02-16T20:29:05.744Z,3.74
2019-02-16T20:32:00.407Z,3.69
2019-02-16T20:34:54.776Z,3.62
2019-02-16T20:37:46.704Z,3.69
2019-02-16T20:40:38.339Z,3.62
2019-02-16T20:43:33.481Z,3.53
2019-02-16T20:46:20.408Z,3.50
2019-02-16T20:48:58.760Z,3.49
2019-02-16T20:51:47.690Z,3.40
2019-02-16T20:54:25.482Z,3.41
2019-02-16T20:57:20.326Z,3.28
2019-02-16T21:00:13.307Z,3.26
2019-02-16T21:02:51.919Z,3.28
2019-02-16T21:05:39.569Z,3.24
2019-02-16T21:08:26.188Z,3.19
2019-02-16T21:11:10.479Z,3.10
2019-02-16T21:13:57.813Z,3.18
2019-02-16T21:16:51.976Z,3.07
2019-02-16T21:19:46.173Z,3.07
2019-02-16T21:22:27.977Z,2.95
2019-02-16T21:25:20.249Z,3.00
2019-02-16T21:28:04.662Z,2.97
2019-02-16T21:30:43.809Z,2.94
2019-02-16T21:33:31.570Z,3.06
2019-02-16T21:36:22.860Z,2.93
2019-02-16T21:39:29.871Z,3.17
2019-02-16T21:42:25.142Z,2.89
2019-02-16T21:45:12.328Z,2.91
2019-02-16T21:48:01.004Z,2.92
2019-02-16T21:51:01.877Z,3.01
2019-02-16T21:53:40.530Z,2.95
2019-02-16T21:56:28.646Z,2.93
2019-02-16T21:59:19.113Z,2.95
2019-02-16T22:02:02.588Z,2.69
2019-02-16T22:04:49.397Z,2.68
2019-02-16T22:07:39.650Z,2.81
2019-02-16T22:10:30.863Z,2.74
2019-02-16T22:13:09.191Z,2.68
2019-02-16T22:15:38.303Z,2.93
2019-02-16T22:18:07.409Z,2.74
2019-02-16T22:20:36.528Z,2.59
2019-02-16T22:23:06.974Z,2.42
2019-02-16T22:25:36.090Z,2.41
2019-02-16T22:28:05.195Z,2.35
2019-02-16T22:30:34.304Z,2.42
2019-02-16T22:33:03.389Z,2.33
2019-02-16T22:35:32.577Z,2.34
2019-02-16T22:38:01.673Z,2.23
2019-02-16T22:40:32.920Z,2.09
2019-02-16T22:43:02.930Z,2.10
2019-02-16T22:45:33.206Z,2.12
2019-02-16T22:48:03.763Z,2.11
2019-02-16T22:50:33.463Z,2.20
2019-02-16T22:53:04.008Z,1.95
2019-02-16T22:55:34.056Z,2.11
2019-02-16T22:58:04.031Z,2.01
2019-02-16T23:00:43.732Z,1.98
2019-02-16T23:03:13.264Z,2.19
2019-02-16T23:05:43.616Z,2.20
2019-02-16T23:08:12.739Z,2.10
2019-02-16T23:10:41.828Z,1.96
2019-02-16T23:13:10.964Z,1.86
2019-02-16T23:15:40.065Z,1.89
2019-02-16T23:18:09.171Z,2.04
2019-02-16T23:20:38.260Z,1.90
2019-02-16T23:23:07.364Z,1.96
2019-02-16T23:25:36.441Z,1.86
2019-02-16T23:28:05.559Z,1.95
2019-02-16T23:30:34.646Z,2.06
2019-02-16T23:33:04.592Z,2.00
2019-02-16T23:35:34.254Z,1.91
2019-02-16T23:38:04.381Z,1.57
2019-02-16T23:40:34.158Z,1.57
2019-02-16T23:43:05.394Z,1.57
2019-02-16T23:45:36.594Z,1.58
2019-02-16T23:48:06.944Z,1.48
2019-02-16T23:50:36.530Z,1.52
2019-02-16T23:53:06.757Z,1.46
2019-02-16T23:55:37.892Z,1.31
2019-02-16T23:58:09.383Z,1.28
